sensor_id;sensor_type;location;lat;lon;timestamp;temperature;humidity
35043;DHT22;21230;51.170;17.024;2022-08-03T00:01:23;18.00;99.90
35043;DHT22;21230;51.170;17.024;2022-08-03T00:03:49;18.00;99.90
35043;DHT22;21230;51.170;17.024;2022-08-03T00:06:15;17.90;99.90
35043;DHT22;21230;51.170;17.024;2022-08-03T00:08:40;17.70;99.90
35043;DHT22;21230;51.170;17.024;2022-08-03T00:11:06;17.60;99.90
35043;DHT22;21230;51.170;17.024;2022-08-03T00:13:32;17.50;99.90
35043;DHT22;21230;51.170;17.024;2022-08-03T00:15:57;17.50;99.90
35043;DHT22;21230;51.170;17.024;2022-08-03T00:18:23;17.40;99.90
35043;DHT22;21230;51.170;17.024;2022-08-03T00:20:49;17.40;99.90
35043;DHT22;21230;51.170;17.024;2022-08-03T00:23:14;17.40;99.90
35043;DHT22;21230;51.170;17.024;2022-08-03T00:25:40;17.50;99.90
35043;DHT22;21230;51.170;17.024;2022-08-03T00:28:06;17.50;99.90
35043;DHT22;21230;51.170;17.024;2022-08-03T00:30:31;17.40;99.90
35043;DHT22;21230;51.170;17.024;2022-08-03T00:32:57;17.40;99.90
35043;DHT22;21230;51.170;17.024;2022-08-03T00:35:23;17.40;99.90
35043;DHT22;21230;51.170;17.024;2022-08-03T00:37:49;17.40;99.90
35043;DHT22;21230;51.170;17.024;2022-08-03T00:40:16;17.50;99.90
35043;DHT22;21230;51.170;17.024;2022-08-03T00:45:15;17.50;99.90
35043;DHT22;21230;51.170;17.024;2022-08-03T00:47:41;17.50;99.90
35043;DHT22;21230;51.170;17.024;2022-08-03T00:50:07;17.40;99.90
35043;DHT22;21230;51.170;17.024;2022-08-03T00:52:33;17.40;99.90
35043;DHT22;21230;51.170;17.024;2022-08-03T00:54:59;17.40;99.90
35043;DHT22;21230;51.170;17.024;2022-08-03T00:57:25;17.30;99.90
35043;DHT22;21230;51.170;17.024;2022-08-03T00:59:50;17.30;99.90
35043;DHT22;21230;51.170;17.024;2022-08-03T01:02:16;17.20;99.90
35043;DHT22;21230;51.170;17.024;2022-08-03T01:07:50;17.10;99.90
35043;DHT22;21230;51.170;17.024;2022-08-03T01:10:32;17.10;99.90
35043;DHT22;21230;51.170;17.024;2022-08-03T01:20:39;17.10;99.90
35043;DHT22;21230;51.170;17.024;2022-08-03T01:30:30;17.00;99.90
35043;DHT22;21230;51.170;17.024;2022-08-03T01:32:59;16.90;99.90
35043;DHT22;21230;51.170;17.024;2022-08-03T01:38:21;16.80;99.90
35043;DHT22;21230;51.170;17.024;2022-08-03T01:40:48;16.80;99.90
35043;DHT22;21230;51.170;17.024;2022-08-03T01:43:17;16.80;99.90
35043;DHT22;21230;51.170;17.024;2022-08-03T01:45:44;16.80;99.90
35043;DHT22;21230;51.170;17.024;2022-08-03T01:48:11;16.80;99.90
35043;DHT22;21230;51.170;17.024;2022-08-03T01:50:37;16.70;99.90
35043;DHT22;21230;51.170;17.024;2022-08-03T01:53:04;16.70;99.90
35043;DHT22;21230;51.170;17.024;2022-08-03T01:55:32;16.70;99.90
35043;DHT22;21230;51.170;17.024;2022-08-03T01:57:58;16.80;99.90
35043;DHT22;21230;51.170;17.024;2022-08-03T02:00:25;16.80;99.90
35043;DHT22;21230;51.170;17.024;2022-08-03T02:02:51;16.80;99.90
35043;DHT22;21230;51.170;17.024;2022-08-03T02:05:20;16.90;99.90
35043;DHT22;21230;51.170;17.024;2022-08-03T02:07:46;16.90;99.90
35043;DHT22;21230;51.170;17.024;2022-08-03T02:10:13;16.90;99.90
35043;DHT22;21230;51.170;17.024;2022-08-03T02:12:42;16.90;99.90
35043;DHT22;21230;51.170;17.024;2022-08-03T02:15:09;16.80;99.90
35043;DHT22;21230;51.170;17.024;2022-08-03T02:17:35;16.70;99.90
35043;DHT22;21230;51.170;17.024;2022-08-03T02:20:02;16.70;99.90
35043;DHT22;21230;51.170;17.024;2022-08-03T02:22:29;16.70;99.90
35043;DHT22;21230;51.170;17.024;2022-08-03T02:24:55;16.70;99.90
35043;DHT22;21230;51.170;17.024;2022-08-03T02:27:23;16.80;99.90
35043;DHT22;21230;51.170;17.024;2022-08-03T02:29:54;16.90;99.90
35043;DHT22;21230;51.170;17.024;2022-08-03T02:32:28;17.00;99.90
35043;DHT22;21230;51.170;17.024;2022-08-03T02:34:56;17.00;99.90
35043;DHT22;21230;51.170;17.024;2022-08-03T02:37:24;17.00;99.90
35043;DHT22;21230;51.170;17.024;2022-08-03T02:39:51;17.00;99.90
35043;DHT22;21230;51.170;17.024;2022-08-03T02:42:21;17.00;99.90
35043;DHT22;21230;51.170;17.024;2022-08-03T02:44:48;17.00;99.90
35043;DHT22;21230;51.170;17.024;2022-08-03T02:47:14;17.00;99.90
35043;DHT22;21230;51.170;17.024;2022-08-03T02:49:41;17.00;99.90
35043;DHT22;21230;51.170;17.024;2022-08-03T02:52:08;17.00;99.90
35043;DHT22;21230;51.170;17.024;2022-08-03T02:54:35;17.00;99.90
35043;DHT22;21230;51.170;17.024;2022-08-03T02:57:01;17.10;99.90
35043;DHT22;21230;51.170;17.024;2022-08-03T02:59:27;17.00;99.90
35043;DHT22;21230;51.170;17.024;2022-08-03T03:01:55;17.00;99.90
35043;DHT22;21230;51.170;17.024;2022-08-03T03:04:22;17.00;99.90
35043;DHT22;21230;51.170;17.024;2022-08-03T03:06:48;17.00;99.90
35043;DHT22;21230;51.170;17.024;2022-08-03T03:09:15;17.10;99.90
35043;DHT22;21230;51.170;17.024;2022-08-03T03:11:41;17.20;99.90
35043;DHT22;21230;51.170;17.024;2022-08-03T03:14:08;17.30;99.90
35043;DHT22;21230;51.170;17.024;2022-08-03T03:16:35;17.30;99.90
35043;DHT22;21230;51.170;17.024;2022-08-03T03:19:00;17.30;99.90
35043;DHT22;21230;51.170;17.024;2022-08-03T03:21:27;17.20;99.90
35043;DHT22;21230;51.170;17.024;2022-08-03T03:23:53;17.20;99.90
35043;DHT22;21230;51.170;17.024;2022-08-03T03:26:19;17.20;99.90
35043;DHT22;21230;51.170;17.024;2022-08-03T03:28:45;17.10;99.90
35043;DHT22;21230;51.170;17.024;2022-08-03T03:31:11;17.00;99.90
35043;DHT22;21230;51.170;17.024;2022-08-03T03:33:37;16.90;99.90
35043;DHT22;21230;51.170;17.024;2022-08-03T03:36:03;16.90;99.90
35043;DHT22;21230;51.170;17.024;2022-08-03T03:38:29;16.80;99.90
35043;DHT22;21230;51.170;17.024;2022-08-03T03:40:55;16.80;99.90
35043;DHT22;21230;51.170;17.024;2022-08-03T03:43:21;16.80;99.90
35043;DHT22;21230;51.170;17.024;2022-08-03T03:45:47;16.80;99.90
35043;DHT22;21230;51.170;17.024;2022-08-03T03:48:13;16.90;99.90
35043;DHT22;21230;51.170;17.024;2022-08-03T03:50:39;17.00;99.90
35043;DHT22;21230;51.170;17.024;2022-08-03T03:53:07;17.10;99.90
35043;DHT22;21230;51.170;17.024;2022-08-03T03:55:33;17.10;99.90
35043;DHT22;21230;51.170;17.024;2022-08-03T03:57:58;17.20;99.90
35043;DHT22;21230;51.170;17.024;2022-08-03T04:00:24;17.30;99.90
35043;DHT22;21230;51.170;17.024;2022-08-03T04:02:50;17.40;99.90
35043;DHT22;21230;51.170;17.024;2022-08-03T04:05:15;17.50;99.90
35043;DHT22;21230;51.170;17.024;2022-08-03T04:08:00;17.70;99.90
35043;DHT22;21230;51.170;17.024;2022-08-03T04:11:21;17.70;99.90
35043;DHT22;21230;51.170;17.024;2022-08-03T04:13:40;17.80;99.90
35043;DHT22;21230;51.170;17.024;2022-08-03T04:16:07;17.80;99.90
35043;DHT22;21230;51.170;17.024;2022-08-03T04:18:34;17.80;99.90
35043;DHT22;21230;51.170;17.024;2022-08-03T04:21:02;17.80;99.90
35043;DHT22;21230;51.170;17.024;2022-08-03T04:23:28;17.70;99.90
35043;DHT22;21230;51.170;17.024;2022-08-03T04:25:55;17.80;99.90
35043;DHT22;21230;51.170;17.024;2022-08-03T04:28:22;17.80;99.90
35043;DHT22;21230;51.170;17.024;2022-08-03T04:30:48;17.70;99.90
35043;DHT22;21230;51.170;17.024;2022-08-03T04:33:15;17.70;99.90
35043;DHT22;21230;51.170;17.024;2022-08-03T04:35:41;17.70;99.90
35043;DHT22;21230;51.170;17.024;2022-08-03T04:38:07;17.70;99.90
35043;DHT22;21230;51.170;17.024;2022-08-03T04:40:34;17.60;99.90
35043;DHT22;21230;51.170;17.024;2022-08-03T04:43:01;17.60;99.90
35043;DHT22;21230;51.170;17.024;2022-08-03T04:45:27;17.60;99.90
35043;DHT22;21230;51.170;17.024;2022-08-03T04:47:53;17.50;99.90
35043;DHT22;21230;51.170;17.024;2022-08-03T04:50:19;17.50;99.90
35043;DHT22;21230;51.170;17.024;2022-08-03T04:52:45;17.50;99.90
35043;DHT22;21230;51.170;17.024;2022-08-03T04:55:11;17.50;99.90
35043;DHT22;21230;51.170;17.024;2022-08-03T04:57:37;17.50;99.90
35043;DHT22;21230;51.170;17.024;2022-08-03T05:00:03;17.50;99.90
35043;DHT22;21230;51.170;17.024;2022-08-03T05:02:30;17.60;99.90
35043;DHT22;21230;51.170;17.024;2022-08-03T05:04:56;17.70;99.90
35043;DHT22;21230;51.170;17.024;2022-08-03T05:07:22;17.70;99.90
35043;DHT22;21230;51.170;17.024;2022-08-03T05:09:47;17.80;99.90
35043;DHT22;21230;51.170;17.024;2022-08-03T05:12:13;17.90;99.90
35043;DHT22;21230;51.170;17.024;2022-08-03T05:14:38;18.10;99.90
35043;DHT22;21230;51.170;17.024;2022-08-03T05:17:04;18.20;99.90
35043;DHT22;21230;51.170;17.024;2022-08-03T05:19:30;18.30;99.90
35043;DHT22;21230;51.170;17.024;2022-08-03T05:21:56;18.30;99.90
35043;DHT22;21230;51.170;17.024;2022-08-03T05:24:22;18.40;99.90
35043;DHT22;21230;51.170;17.024;2022-08-03T05:26:48;18.50;99.90
35043;DHT22;21230;51.170;17.024;2022-08-03T05:29:14;18.60;99.90
35043;DHT22;21230;51.170;17.024;2022-08-03T05:31:39;18.80;99.90
35043;DHT22;21230;51.170;17.024;2022-08-03T05:34:05;19.00;99.90
35043;DHT22;21230;51.170;17.024;2022-08-03T05:36:32;19.10;99.90
35043;DHT22;21230;51.170;17.024;2022-08-03T05:38:58;19.20;99.90
35043;DHT22;21230;51.170;17.024;2022-08-03T05:41:23;19.30;99.90
35043;DHT22;21230;51.170;17.024;2022-08-03T05:43:53;19.40;99.90
35043;DHT22;21230;51.170;17.024;2022-08-03T05:46:35;19.50;99.90
35043;DHT22;21230;51.170;17.024;2022-08-03T05:49:00;19.60;99.90
35043;DHT22;21230;51.170;17.024;2022-08-03T05:51:27;19.70;99.90
35043;DHT22;21230;51.170;17.024;2022-08-03T05:53:53;19.70;99.90
35043;DHT22;21230;51.170;17.024;2022-08-03T05:56:23;19.80;99.90
35043;DHT22;21230;51.170;17.024;2022-08-03T05:58:52;19.80;99.90
35043;DHT22;21230;51.170;17.024;2022-08-03T06:01:18;19.90;99.90
35043;DHT22;21230;51.170;17.024;2022-08-03T06:03:46;20.10;99.90
35043;DHT22;21230;51.170;17.024;2022-08-03T06:06:12;20.20;99.90
35043;DHT22;21230;51.170;17.024;2022-08-03T06:08:38;20.30;99.90
35043;DHT22;21230;51.170;17.024;2022-08-03T06:11:04;20.50;99.90
35043;DHT22;21230;51.170;17.024;2022-08-03T06:13:30;20.60;99.90
35043;DHT22;21230;51.170;17.024;2022-08-03T06:15:56;20.60;99.90
35043;DHT22;21230;51.170;17.024;2022-08-03T06:18:22;20.70;99.90
35043;DHT22;21230;51.170;17.024;2022-08-03T06:20:49;20.80;99.90
35043;DHT22;21230;51.170;17.024;2022-08-03T06:23:15;21.00;99.90
35043;DHT22;21230;51.170;17.024;2022-08-03T06:25:41;21.20;99.90
35043;DHT22;21230;51.170;17.024;2022-08-03T06:28:07;21.20;99.90
35043;DHT22;21230;51.170;17.024;2022-08-03T06:30:33;21.20;99.90
35043;DHT22;21230;51.170;17.024;2022-08-03T06:32:58;21.40;99.90
35043;DHT22;21230;51.170;17.024;2022-08-03T06:35:24;21.60;99.90
35043;DHT22;21230;51.170;17.024;2022-08-03T06:37:52;21.60;99.90
35043;DHT22;21230;51.170;17.024;2022-08-03T06:40:21;21.70;99.90
35043;DHT22;21230;51.170;17.024;2022-08-03T06:42:53;21.70;99.90
35043;DHT22;21230;51.170;17.024;2022-08-03T06:45:19;21.90;99.90
35043;DHT22;21230;51.170;17.024;2022-08-03T06:47:44;22.00;99.90
35043;DHT22;21230;51.170;17.024;2022-08-03T06:50:10;22.10;99.90
35043;DHT22;21230;51.170;17.024;2022-08-03T06:52:36;22.10;99.90
35043;DHT22;21230;51.170;17.024;2022-08-03T06:55:01;22.20;99.90
35043;DHT22;21230;51.170;17.024;2022-08-03T06:57:27;22.30;99.90
35043;DHT22;21230;51.170;17.024;2022-08-03T06:59:53;22.40;99.90
35043;DHT22;21230;51.170;17.024;2022-08-03T07:02:20;22.60;99.90
35043;DHT22;21230;51.170;17.024;2022-08-03T07:04:46;22.70;99.90
35043;DHT22;21230;51.170;17.024;2022-08-03T07:07:12;22.80;99.90
35043;DHT22;21230;51.170;17.024;2022-08-03T07:09:38;22.90;99.90
35043;DHT22;21230;51.170;17.024;2022-08-03T07:12:04;23.00;99.90
35043;DHT22;21230;51.170;17.024;2022-08-03T07:14:30;23.00;99.90
35043;DHT22;21230;51.170;17.024;2022-08-03T07:16:56;23.20;99.90
35043;DHT22;21230;51.170;17.024;2022-08-03T07:19:22;23.30;99.90
35043;DHT22;21230;51.170;17.024;2022-08-03T07:21:47;23.40;99.90
35043;DHT22;21230;51.170;17.024;2022-08-03T07:24:13;23.50;99.90
35043;DHT22;21230;51.170;17.024;2022-08-03T07:26:39;23.60;97.60
35043;DHT22;21230;51.170;17.024;2022-08-03T07:29:04;23.80;97.50
35043;DHT22;21230;51.170;17.024;2022-08-03T07:31:30;23.90;96.60
35043;DHT22;21230;51.170;17.024;2022-08-03T07:33:55;23.90;95.40
35043;DHT22;21230;51.170;17.024;2022-08-03T07:36:21;24.00;95.80
35043;DHT22;21230;51.170;17.024;2022-08-03T07:38:48;24.10;96.60
35043;DHT22;21230;51.170;17.024;2022-08-03T07:41:15;24.30;95.50
35043;DHT22;21230;51.170;17.024;2022-08-03T07:43:40;24.40;92.40
35043;DHT22;21230;51.170;17.024;2022-08-03T07:46:06;24.40;91.30
35043;DHT22;21230;51.170;17.024;2022-08-03T07:48:31;24.50;92.50
35043;DHT22;21230;51.170;17.024;2022-08-03T07:50:57;24.60;93.50
35043;DHT22;21230;51.170;17.024;2022-08-03T07:53:23;24.70;92.90
35043;DHT22;21230;51.170;17.024;2022-08-03T07:55:48;24.80;92.80
35043;DHT22;21230;51.170;17.024;2022-08-03T07:58:14;24.90;93.20
35043;DHT22;21230;51.170;17.024;2022-08-03T08:00:41;25.00;93.00
35043;DHT22;21230;51.170;17.024;2022-08-03T08:03:08;25.10;91.70
35043;DHT22;21230;51.170;17.024;2022-08-03T08:05:34;25.20;90.60
35043;DHT22;21230;51.170;17.024;2022-08-03T08:08:00;25.20;88.90
35043;DHT22;21230;51.170;17.024;2022-08-03T08:10:26;25.20;89.90
35043;DHT22;21230;51.170;17.024;2022-08-03T08:12:53;25.30;88.70
35043;DHT22;21230;51.170;17.024;2022-08-03T08:15:19;25.30;86.30
35043;DHT22;21230;51.170;17.024;2022-08-03T08:20:13;25.60;88.70
35043;DHT22;21230;51.170;17.024;2022-08-03T08:22:40;25.60;85.70
35043;DHT22;21230;51.170;17.024;2022-08-03T08:25:06;25.80;84.90
35043;DHT22;21230;51.170;17.024;2022-08-03T08:27:40;25.80;82.20
35043;DHT22;21230;51.170;17.024;2022-08-03T08:30:06;25.90;79.80
35043;DHT22;21230;51.170;17.024;2022-08-03T08:32:33;25.90;80.00
35043;DHT22;21230;51.170;17.024;2022-08-03T08:34:59;26.00;82.80
35043;DHT22;21230;51.170;17.024;2022-08-03T08:37:24;26.00;79.70
35043;DHT22;21230;51.170;17.024;2022-08-03T08:39:50;26.00;84.10
35043;DHT22;21230;51.170;17.024;2022-08-03T08:42:16;26.00;83.00
35043;DHT22;21230;51.170;17.024;2022-08-03T08:44:41;26.10;80.80
35043;DHT22;21230;51.170;17.024;2022-08-03T08:47:07;26.10;77.60
35043;DHT22;21230;51.170;17.024;2022-08-03T08:49:34;26.30;77.50
35043;DHT22;21230;51.170;17.024;2022-08-03T08:52:00;26.30;79.90
35043;DHT22;21230;51.170;17.024;2022-08-03T08:54:28;26.40;76.90
35043;DHT22;21230;51.170;17.024;2022-08-03T08:56:55;26.50;78.60
35043;DHT22;21230;51.170;17.024;2022-08-03T08:59:24;26.60;79.50
35043;DHT22;21230;51.170;17.024;2022-08-03T09:01:55;26.70;79.00
35043;DHT22;21230;51.170;17.024;2022-08-03T09:04:22;26.60;78.00
35043;DHT22;21230;51.170;17.024;2022-08-03T09:06:48;26.70;76.40
35043;DHT22;21230;51.170;17.024;2022-08-03T09:09:16;26.80;75.80
35043;DHT22;21230;51.170;17.024;2022-08-03T09:11:46;26.90;74.00
35043;DHT22;21230;51.170;17.024;2022-08-03T09:14:12;27.00;71.20
35043;DHT22;21230;51.170;17.024;2022-08-03T09:16:58;27.10;70.00
35043;DHT22;21230;51.170;17.024;2022-08-03T09:19:31;27.20;69.20
35043;DHT22;21230;51.170;17.024;2022-08-03T09:22:11;27.30;65.70
35043;DHT22;21230;51.170;17.024;2022-08-03T09:27:25;27.40;65.40
35043;DHT22;21230;51.170;17.024;2022-08-03T09:29:56;27.50;67.00
35043;DHT22;21230;51.170;17.024;2022-08-03T09:32:23;27.50;66.80
35043;DHT22;21230;51.170;17.024;2022-08-03T09:34:51;27.60;65.50
35043;DHT22;21230;51.170;17.024;2022-08-03T09:37:27;27.70;66.60
35043;DHT22;21230;51.170;17.024;2022-08-03T09:40:12;27.70;63.50
35043;DHT22;21230;51.170;17.024;2022-08-03T09:43:05;27.80;64.20
35043;DHT22;21230;51.170;17.024;2022-08-03T09:45:45;27.80;65.70
35043;DHT22;21230;51.170;17.024;2022-08-03T09:48:29;27.90;64.80
35043;DHT22;21230;51.170;17.024;2022-08-03T09:50:57;27.90;63.30
35043;DHT22;21230;51.170;17.024;2022-08-03T09:53:25;27.90;62.00
35043;DHT22;21230;51.170;17.024;2022-08-03T09:56:02;27.90;65.50
35043;DHT22;21230;51.170;17.024;2022-08-03T09:58:30;28.00;61.10
35043;DHT22;21230;51.170;17.024;2022-08-03T10:01:06;28.00;61.30
35043;DHT22;21230;51.170;17.024;2022-08-03T10:03:37;28.10;60.90
35043;DHT22;21230;51.170;17.024;2022-08-03T10:06:18;28.20;59.60
35043;DHT22;21230;51.170;17.024;2022-08-03T10:08:46;28.30;58.30
35043;DHT22;21230;51.170;17.024;2022-08-03T10:11:29;28.40;59.70
35043;DHT22;21230;51.170;17.024;2022-08-03T10:14:11;28.40;57.60
35043;DHT22;21230;51.170;17.024;2022-08-03T10:16:51;28.30;56.40
35043;DHT22;21230;51.170;17.024;2022-08-03T10:19:17;28.30;58.40
35043;DHT22;21230;51.170;17.024;2022-08-03T10:21:57;28.40;59.40
35043;DHT22;21230;51.170;17.024;2022-08-03T10:24:29;28.30;58.30
35043;DHT22;21230;51.170;17.024;2022-08-03T10:27:05;28.50;59.70
35043;DHT22;21230;51.170;17.024;2022-08-03T10:29:38;28.50;58.40
35043;DHT22;21230;51.170;17.024;2022-08-03T10:32:17;28.50;58.70
35043;DHT22;21230;51.170;17.024;2022-08-03T10:34:50;28.60;56.60
35043;DHT22;21230;51.170;17.024;2022-08-03T10:37:29;28.60;55.70
35043;DHT22;21230;51.170;17.024;2022-08-03T10:39:57;28.60;54.90
35043;DHT22;21230;51.170;17.024;2022-08-03T10:42:24;28.50;56.90
35043;DHT22;21230;51.170;17.024;2022-08-03T10:44:56;28.70;59.50
35043;DHT22;21230;51.170;17.024;2022-08-03T10:47:23;28.90;55.30
35043;DHT22;21230;51.170;17.024;2022-08-03T10:49:51;29.00;55.30
35043;DHT22;21230;51.170;17.024;2022-08-03T10:52:18;29.00;53.90
35043;DHT22;21230;51.170;17.024;2022-08-03T10:54:44;29.00;55.40
35043;DHT22;21230;51.170;17.024;2022-08-03T10:57:49;29.00;53.70
35043;DHT22;21230;51.170;17.024;2022-08-03T11:00:16;28.80;52.10
35043;DHT22;21230;51.170;17.024;2022-08-03T11:05:31;28.80;52.70
35043;DHT22;21230;51.170;17.024;2022-08-03T11:08:17;28.90;52.10
35043;DHT22;21230;51.170;17.024;2022-08-03T11:10:43;29.00;51.30
35043;DHT22;21230;51.170;17.024;2022-08-03T11:13:11;29.10;52.40
35043;DHT22;21230;51.170;17.024;2022-08-03T11:15:46;29.30;50.00
35043;DHT22;21230;51.170;17.024;2022-08-03T11:18:13;29.40;48.20
35043;DHT22;21230;51.170;17.024;2022-08-03T11:23:12;29.60;47.90
35043;DHT22;21230;51.170;17.024;2022-08-03T11:28:27;29.70;44.90
35043;DHT22;21230;51.170;17.024;2022-08-03T11:34:04;29.90;48.10
35043;DHT22;21230;51.170;17.024;2022-08-03T11:36:30;29.90;47.90
35043;DHT22;21230;51.170;17.024;2022-08-03T11:39:14;30.00;47.00
35043;DHT22;21230;51.170;17.024;2022-08-03T11:41:42;30.00;44.00
35043;DHT22;21230;51.170;17.024;2022-08-03T11:44:09;29.90;45.50
35043;DHT22;21230;51.170;17.024;2022-08-03T11:46:56;29.80;44.20
35043;DHT22;21230;51.170;17.024;2022-08-03T11:49:24;29.50;43.80
35043;DHT22;21230;51.170;17.024;2022-08-03T11:51:53;29.40;43.50
35043;DHT22;21230;51.170;17.024;2022-08-03T11:54:20;29.40;44.50
35043;DHT22;21230;51.170;17.024;2022-08-03T11:56:48;29.60;46.70
35043;DHT22;21230;51.170;17.024;2022-08-03T11:59:15;29.50;45.40
35043;DHT22;21230;51.170;17.024;2022-08-03T12:01:43;29.60;43.30
35043;DHT22;21230;51.170;17.024;2022-08-03T12:04:10;29.60;42.70
35043;DHT22;21230;51.170;17.024;2022-08-03T12:06:59;29.60;41.00
35043;DHT22;21230;51.170;17.024;2022-08-03T12:09:40;29.50;42.90
35043;DHT22;21230;51.170;17.024;2022-08-03T12:30:15;30.00;46.50
35043;DHT22;21230;51.170;17.024;2022-08-03T12:36:18;30.00;46.00
35043;DHT22;21230;51.170;17.024;2022-08-03T12:39:06;30.10;44.70
35043;DHT22;21230;51.170;17.024;2022-08-03T12:41:33;30.20;45.70
35043;DHT22;21230;51.170;17.024;2022-08-03T12:44:03;30.20;45.90
35043;DHT22;21230;51.170;17.024;2022-08-03T12:46:30;30.10;44.20
35043;DHT22;21230;51.170;17.024;2022-08-03T12:49:09;30.20;44.10
35043;DHT22;21230;51.170;17.024;2022-08-03T12:51:36;30.30;42.70
35043;DHT22;21230;51.170;17.024;2022-08-03T12:54:05;30.30;42.60
35043;DHT22;21230;51.170;17.024;2022-08-03T13:18:09;30.50;39.60
35043;DHT22;21230;51.170;17.024;2022-08-03T13:20:35;30.50;42.30
35043;DHT22;21230;51.170;17.024;2022-08-03T13:23:01;30.50;41.80
35043;DHT22;21230;51.170;17.024;2022-08-03T13:25:26;30.50;41.10
35043;DHT22;21230;51.170;17.024;2022-08-03T13:27:52;30.50;42.40
35043;DHT22;21230;51.170;17.024;2022-08-03T13:30:18;30.20;40.50
35043;DHT22;21230;51.170;17.024;2022-08-03T13:32:44;30.20;41.10
35043;DHT22;21230;51.170;17.024;2022-08-03T13:35:09;30.20;41.70
35043;DHT22;21230;51.170;17.024;2022-08-03T13:37:35;30.20;40.50
35043;DHT22;21230;51.170;17.024;2022-08-03T13:40:02;30.30;41.20
35043;DHT22;21230;51.170;17.024;2022-08-03T13:42:29;30.20;39.80
35043;DHT22;21230;51.170;17.024;2022-08-03T13:44:55;30.20;40.30
35043;DHT22;21230;51.170;17.024;2022-08-03T13:47:20;30.10;38.60
35043;DHT22;21230;51.170;17.024;2022-08-03T13:49:46;30.10;39.50
35043;DHT22;21230;51.170;17.024;2022-08-03T13:52:12;30.20;40.80
35043;DHT22;21230;51.170;17.024;2022-08-03T13:54:37;30.20;38.90
35043;DHT22;21230;51.170;17.024;2022-08-03T13:57:03;30.20;41.10
35043;DHT22;21230;51.170;17.024;2022-08-03T13:59:29;30.20;42.10
35043;DHT22;21230;51.170;17.024;2022-08-03T14:01:55;30.10;39.80
35043;DHT22;21230;51.170;17.024;2022-08-03T14:04:22;30.10;40.50
35043;DHT22;21230;51.170;17.024;2022-08-03T14:06:47;30.10;40.30
35043;DHT22;21230;51.170;17.024;2022-08-03T14:09:15;30.20;41.30
35043;DHT22;21230;51.170;17.024;2022-08-03T14:11:41;30.20;40.90
35043;DHT22;21230;51.170;17.024;2022-08-03T14:14:07;30.10;39.10
